createdAt,value
2022-10-02T00:04:59.028Z,98902.80
2022-10-02T00:07:40.749Z,98893.27
2022-10-02T00:10:17.090Z,98894.89
2022-10-02T00:12:47.713Z,98915.31
2022-10-02T00:15:23.216Z,98929.08
2022-10-02T00:17:55.485Z,98928.36
2022-10-02T00:20:31.936Z,98934.23
2022-10-02T00:23:08.300Z,98939.11
2022-10-02T00:26:05.642Z,98926.92
2022-10-02T00:28:57.701Z,98924.61
2022-10-02T00:31:31.411Z,98908.00
2022-10-02T00:34:22.194Z,98907.80
2022-10-02T00:36:53.353Z,98889.54
2022-10-02T00:39:36.574Z,98901.75
2022-10-02T00:42:32.850Z,98909.85
2022-10-02T00:45:21.360Z,98907.36
2022-10-02T00:47:59.903Z,98905.33
2022-10-02T00:51:47.315Z,98899.23
2022-10-02T00:55:41.145Z,98895.44
2022-10-02T00:59:33.589Z,98899.66
2022-10-02T01:03:34.848Z,98899.50
2022-10-02T01:07:07.916Z,98880.27
2022-10-02T01:10:54.204Z,98898.08
2022-10-02T01:14:07.719Z,98893.87
2022-10-02T01:16:36.123Z,98895.44
2022-10-02T01:19:04.955Z,98893.55
2022-10-02T01:21:42.325Z,98893.80
2022-10-02T01:24:51.262Z,98895.80
2022-10-02T01:28:07.716Z,98885.72
2022-10-02T01:31:55.557Z,98880.90
2022-10-02T01:35:32.466Z,98897.92
2022-10-02T01:38:43.235Z,98892.83
2022-10-02T01:41:12.555Z,98902.49
2022-10-02T01:43:46.910Z,98900.71
2022-10-02T01:47:35.310Z,98901.32
2022-10-02T01:50:22.118Z,98902.52
2022-10-02T01:52:56.639Z,98906.47
2022-10-02T01:56:03.725Z,98909.48
2022-10-02T01:59:20.378Z,98905.70
2022-10-02T02:02:07.202Z,98905.71
2022-10-02T02:04:50.251Z,98896.91
2022-10-02T02:08:37.311Z,98887.77
2022-10-02T02:12:26.309Z,98891.73
2022-10-02T02:16:08.436Z,98884.81
2022-10-02T02:20:09.325Z,98882.57
2022-10-02T02:23:53.355Z,98855.82
2022-10-02T02:27:23.360Z,98881.24
2022-10-02T02:31:07.965Z,98879.43
2022-10-02T02:33:46.194Z,98874.55
2022-10-02T02:36:19.403Z,98886.86
2022-10-02T02:39:01.735Z,98887.66
2022-10-02T02:41:38.102Z,98887.42
2022-10-02T02:44:28.339Z,98891.52
2022-10-02T02:48:00.327Z,98889.89
2022-10-02T02:51:52.040Z,98894.73
2022-10-02T02:55:29.424Z,98896.66
2022-10-02T02:58:06.629Z,98899.81
2022-10-02T03:00:34.952Z,98898.02
2022-10-02T03:03:03.559Z,98899.30
2022-10-02T03:05:34.737Z,98899.24
2022-10-02T03:08:12.483Z,98899.28
2022-10-02T03:11:00.969Z,98902.88
2022-10-02T03:14:53.063Z,98902.52
2022-10-02T03:18:50.798Z,98902.59
2022-10-02T03:22:33.806Z,98904.69
2022-10-02T03:25:13.269Z,98905.36
2022-10-02T03:27:51.503Z,98898.23
2022-10-02T03:30:24.697Z,98899.23
2022-10-02T03:32:54.085Z,98899.91
2022-10-02T03:35:25.082Z,98900.97
2022-10-02T03:37:57.509Z,98904.73
2022-10-02T03:40:26.503Z,98907.88
2022-10-02T03:42:58.572Z,98910.39
2022-10-02T03:45:55.111Z,98914.62
2022-10-02T03:48:23.413Z,98917.67
2022-10-02T03:50:51.604Z,98922.02
2022-10-02T03:53:29.761Z,98922.35
2022-10-02T03:56:12.568Z,98926.77
2022-10-02T03:58:47.162Z,98934.55
2022-10-02T04:01:26.969Z,98942.04
2022-10-02T04:04:04.870Z,98941.28
2022-10-02T04:06:36.239Z,98951.99
2022-10-02T04:09:23.528Z,98958.55
2022-10-02T04:12:09.286Z,98959.62
2022-10-02T04:14:45.232Z,98968.92
2022-10-02T04:17:15.698Z,98980.90
2022-10-02T04:20:47.566Z,98990.49
2022-10-02T04:23:21.821Z,98995.38
2022-10-02T04:25:55.594Z,99000.45
2022-10-02T04:28:48.036Z,99010.73
2022-10-02T04:32:37.014Z,99017.02
2022-10-02T04:36:40.931Z,99020.20
2022-10-02T04:40:31.542Z,99030.19
2022-10-02T04:43:39.117Z,99031.16
2022-10-02T04:46:58.181Z,99039.02
2022-10-02T04:50:33.462Z,99038.36
2022-10-02T04:58:14.284Z,99029.46
2022-10-02T05:01:06.283Z,99053.14
2022-10-02T05:07:51.783Z,99055.34
2022-10-02T05:10:51.181Z,99060.77
2022-10-02T05:13:33.240Z,99064.00
2022-10-02T05:17:23.548Z,99062.95
2022-10-02T05:19:54.846Z,99061.01
2022-10-02T05:22:45.171Z,99078.17
2022-10-02T05:26:36.373Z,99083.56
2022-10-02T05:30:30.610Z,99078.85
2022-10-02T05:34:07.184Z,99083.23
2022-10-02T05:37:31.482Z,99079.16
2022-10-02T05:41:07.907Z,99075.35
2022-10-02T05:44:53.486Z,99080.02
2022-10-02T05:48:26.501Z,99077.90
2022-10-02T05:52:01.208Z,99083.84
2022-10-02T05:54:37.723Z,99081.30
2022-10-02T05:57:21.574Z,99089.35
2022-10-02T06:00:56.214Z,99093.12
2022-10-02T06:04:36.640Z,99104.05
2022-10-02T06:08:23.267Z,99114.38
2022-10-02T06:10:57.235Z,99115.41
2022-10-02T06:14:05.580Z,99113.66
2022-10-02T06:17:36.478Z,99124.70
2022-10-02T06:21:55.972Z,99130.90
2022-10-02T06:25:34.532Z,99138.05
2022-10-02T06:29:12.812Z,99142.02
2022-10-02T06:32:14.206Z,99154.77
2022-10-02T06:34:47.101Z,99162.94
2022-10-02T06:38:50.063Z,99183.03
2022-10-02T06:45:27.983Z,99224.22
2022-10-02T06:48:49.454Z,99217.41
2022-10-02T06:52:13.140Z,99221.70
2022-10-02T06:55:47.873Z,99219.39
2022-10-02T07:42:39.312Z,99249.66
2022-10-02T07:45:34.427Z,99259.73
2022-10-02T07:48:26.094Z,99270.22
2022-10-02T07:51:32.068Z,99272.41
2022-10-02T07:54:26.217Z,99276.59
2022-10-02T07:56:57.112Z,99264.38
2022-10-02T07:59:26.308Z,99285.65
2022-10-02T08:01:56.273Z,99285.16
2022-10-02T08:04:36.715Z,99280.39
2022-10-02T08:07:06.939Z,99278.63
2022-10-02T08:09:49.593Z,99283.36
2022-10-02T08:13:20.735Z,99278.21
2022-10-02T08:15:55.182Z,99274.90
2022-10-02T08:19:09.458Z,99283.94
2022-10-02T08:21:43.050Z,99274.71
2022-10-02T08:24:16.436Z,99279.92
2022-10-02T08:27:14.130Z,99279.04
2022-10-02T08:30:04.435Z,99289.42
2022-10-02T08:33:37.953Z,99280.14
2022-10-02T08:37:13.587Z,99275.90
2022-10-02T08:40:23.872Z,99278.77
2022-10-02T08:43:52.552Z,99282.77
2022-10-02T08:55:16.440Z,99279.98
2022-10-02T08:58:45.957Z,99273.19
2022-10-02T09:02:29.575Z,99282.02
2022-10-02T09:05:23.564Z,99286.06
2022-10-02T09:08:40.087Z,99289.05
2022-10-02T09:11:58.130Z,99285.79
2022-10-02T09:21:27.935Z,99267.24
2022-10-02T09:24:32.215Z,99276.16
2022-10-02T09:27:25.901Z,99270.75
2022-10-02T09:30:42.016Z,99283.36
2022-10-02T09:34:15.851Z,99271.62
2022-10-02T09:37:40.233Z,99277.80
2022-10-02T09:40:29.700Z,99267.17
2022-10-02T09:43:21.708Z,99264.23
2022-10-02T09:46:14.829Z,99268.55
2022-10-02T09:49:03.422Z,99273.65
2022-10-02T09:52:09.612Z,99269.19
2022-10-02T09:55:31.003Z,99273.23
2022-10-02T10:45:46.464Z,99247.97
2022-10-02T10:59:15.462Z,99249.98
2022-10-02T11:17:38.389Z,99269.20
2022-10-02T11:20:34.837Z,99270.13
2022-10-02T11:23:25.841Z,99263.55
2022-10-02T11:26:37.128Z,99266.27
2022-10-02T11:29:19.700Z,99269.52
2022-10-02T11:32:17.176Z,99266.56
2022-10-02T11:35:19.837Z,99275.23
2022-10-02T11:38:23.578Z,99261.58
2022-10-02T11:41:08.399Z,99268.73
2022-10-02T11:44:11.679Z,99262.98
2022-10-02T11:47:10.995Z,99267.45
2022-10-02T11:50:19.285Z,99277.77
2022-10-02T11:53:16.806Z,99281.05
2022-10-02T11:56:03.447Z,99278.65
2022-10-02T11:59:06.409Z,99275.64
2022-10-02T12:01:59.391Z,99279.55
2022-10-02T12:05:09.346Z,99282.35
2022-10-02T12:07:52.534Z,99283.66
2022-10-02T12:10:48.632Z,99283.81
2022-10-02T12:14:07.136Z,99284.09
2022-10-02T12:17:02.061Z,99283.38
2022-10-02T12:20:11.988Z,99292.34
2022-10-02T12:23:25.840Z,99291.23
2022-10-02T12:26:19.661Z,99289.88
2022-10-02T12:29:24.499Z,99287.98
2022-10-02T12:32:01.273Z,99283.48
2022-10-02T12:38:35.049Z,99275.02
2022-10-02T13:26:18.780Z,99259.09
2022-10-02T13:30:08.295Z,99280.23
2022-10-02T13:33:33.386Z,99281.44
2022-10-02T14:16:00.412Z,99378.77
2022-10-02T14:19:07.828Z,99388.48
2022-10-02T14:22:03.041Z,99387.39
2022-10-02T14:24:59.837Z,99372.49
2022-10-02T14:28:45.731Z,99372.95
2022-10-02T14:31:50.245Z,99380.73
2022-10-02T14:34:34.153Z,99379.48
2022-10-02T14:37:21.444Z,99384.75
2022-10-02T14:39:55.225Z,99394.69
2022-10-02T14:42:57.862Z,99393.37
2022-10-02T14:46:40.530Z,99390.30
2022-10-02T14:49:40.398Z,99385.30
2022-10-02T14:52:26.095Z,99385.45
2022-10-02T14:55:45.499Z,99388.73
2022-10-02T16:30:38.092Z,99422.95
2022-10-02T16:33:48.939Z,99422.49
2022-10-02T16:41:38.163Z,99425.64
2022-10-02T16:45:15.940Z,99429.53
2022-10-02T16:48:47.454Z,99437.01
2022-10-02T16:51:45.397Z,99432.79
2022-10-02T16:54:58.838Z,99430.41
2022-10-02T16:58:18.758Z,99427.09
2022-10-02T17:00:56.671Z,99434.44
2022-10-02T17:03:58.764Z,99425.58
2022-10-02T17:06:49.042Z,99438.30
2022-10-02T17:14:28.654Z,99422.71
2022-10-02T17:17:02.462Z,99438.15
2022-10-02T17:35:39.779Z,99449.17
2022-10-02T17:56:56.364Z,99441.25
2022-10-02T17:59:38.687Z,99436.97
2022-10-02T18:02:29.139Z,99438.66
2022-10-02T18:05:46.626Z,99438.96
2022-10-02T18:08:55.364Z,99438.17
2022-10-02T18:18:30.284Z,99440.77
2022-10-02T18:27:37.842Z,99431.67
2022-10-02T19:09:16.183Z,99428.23
2022-10-02T19:12:46.485Z,99420.08
2022-10-02T19:16:19.119Z,99423.88
2022-10-02T19:19:18.680Z,99427.58
2022-10-02T19:21:48.620Z,99425.78
2022-10-02T19:24:24.299Z,99424.00
2022-10-02T19:26:59.733Z,99426.13
2022-10-02T19:29:36.803Z,99427.89
2022-10-02T19:32:18.580Z,99424.02
2022-10-02T19:34:51.999Z,99423.65
2022-10-02T19:38:18.336Z,99421.95
2022-10-02T19:41:31.334Z,99419.04
2022-10-02T19:44:24.041Z,99420.14
2022-10-02T19:48:04.270Z,99417.95
2022-10-02T19:51:30.158Z,99416.02
2022-10-02T19:55:05.215Z,99418.19
2022-10-02T19:57:57.890Z,99417.70
2022-10-02T20:01:06.024Z,99419.96
2022-10-02T20:04:01.666Z,99418.23
2022-10-02T20:06:37.849Z,99421.73
2022-10-02T20:09:44.757Z,99423.72
2022-10-02T20:12:35.706Z,99427.98
2022-10-02T20:15:51.883Z,99423.61
2022-10-02T20:19:05.079Z,99416.45
2022-10-02T20:22:11.566Z,99407.73
2022-10-02T20:25:39.653Z,99417.89
2022-10-02T20:29:13.760Z,99415.66
2022-10-02T20:32:37.590Z,99413.61
2022-10-02T20:36:34.512Z,99413.61
2022-10-02T20:40:03.828Z,99423.52
2022-10-02T20:43:29.118Z,99423.46
2022-10-02T21:07:56.097Z,99434.60
2022-10-02T21:11:22.257Z,99430.91
2022-10-02T21:14:45.261Z,99432.06
2022-10-02T21:17:40.094Z,99426.05
2022-10-02T21:20:33.270Z,99426.38
2022-10-02T21:23:53.271Z,99424.02
2022-10-02T21:26:46.128Z,99423.70
2022-10-02T22:02:33.431Z,99399.29
2022-10-02T22:06:19.850Z,99406.27
2022-10-02T22:10:14.453Z,99407.66
2022-10-02T22:13:32.308Z,99404.30
2022-10-02T22:16:25.535Z,99400.08
2022-10-02T22:19:40.798Z,99398.48
2022-10-02T22:22:21.492Z,99397.45
2022-10-02T22:25:37.618Z,99398.27
2022-10-02T22:29:04.395Z,99397.59
2022-10-02T22:32:48.085Z,99400.23
2022-10-02T22:36:24.406Z,99399.44
2022-10-02T22:40:00.342Z,99395.72
2022-10-02T22:43:51.184Z,99391.61
2022-10-02T22:47:23.655Z,99389.00
2022-10-02T22:50:36.720Z,99389.41
2022-10-02T22:53:16.943Z,99388.17
2022-10-02T22:55:54.209Z,99388.36
2022-10-02T22:58:46.039Z,99388.61
2022-10-02T23:01:47.270Z,99391.73
2022-10-02T23:05:33.273Z,99383.14
2022-10-02T23:12:44.754Z,99381.39
2022-10-02T23:15:56.417Z,99388.97
2022-10-02T23:19:18.955Z,99389.96
2022-10-02T23:22:07.114Z,99385.74
2022-10-02T23:25:16.527Z,99388.35
2022-10-02T23:29:04.094Z,99387.73
2022-10-02T23:32:41.819Z,99382.17
2022-10-02T23:35:56.473Z,99386.83
2022-10-02T23:39:25.041Z,99383.54
2022-10-02T23:43:00.205Z,99387.67
2022-10-02T23:46:04.938Z,99387.39
2022-10-02T23:48:54.194Z,99383.78
2022-10-02T23:52:38.493Z,99387.19
2022-10-02T23:56:11.249Z,99386.76
2022-10-02T23:59:57.349Z,99378.65
